sensor_id;sensor_type;location;lat;lon;timestamp;pressure;altitude;pressure_sealevel;temperature;humidity
15263;BME280;7733;51.554;13.590;2023-05-07T00:00:06;100953.00;;;12.54;98.77
15263;BME280;7733;51.554;13.590;2023-05-07T00:02:35;100952.31;;;12.41;98.93
15263;BME280;7733;51.554;13.590;2023-05-07T00:05:02;100958.47;;;12.39;99.56
15263;BME280;7733;51.554;13.590;2023-05-07T00:07:28;100959.56;;;12.19;100.00
15263;BME280;7733;51.554;13.590;2023-05-07T00:09:54;100954.06;;;12.42;99.60
15263;BME280;7733;51.554;13.590;2023-05-07T00:12:20;100959.53;;;12.24;100.00
15263;BME280;7733;51.554;13.590;2023-05-07T00:14:46;100957.69;;;12.32;99.65
15263;BME280;7733;51.554;13.590;2023-05-07T00:17:11;100954.53;;;12.03;100.00
15263;BME280;7733;51.554;13.590;2023-05-07T00:19:37;100956.16;;;12.13;100.00
15263;BME280;7733;51.554;13.590;2023-05-07T00:22:03;100966.19;;;11.70;100.00
15263;BME280;7733;51.554;13.590;2023-05-07T00:24:28;100960.53;;;12.12;100.00
15263;BME280;7733;51.554;13.590;2023-05-07T00:26:54;100960.47;;;12.18;100.00
15263;BME280;7733;51.554;13.590;2023-05-07T00:29:20;100958.59;;;12.28;100.00
15263;BME280;7733;51.554;13.590;2023-05-07T00:31:46;100971.28;;;11.91;100.00
15263;BME280;7733;51.554;13.590;2023-05-07T00:34:11;100966.59;;;12.19;100.00
15263;BME280;7733;51.554;13.590;2023-05-07T00:36:37;100966.03;;;11.91;100.00
15263;BME280;7733;51.554;13.590;2023-05-07T00:39:03;100969.38;;;12.07;100.00
15263;BME280;7733;51.554;13.590;2023-05-07T00:41:29;100969.44;;;12.02;100.00
15263;BME280;7733;51.554;13.590;2023-05-07T00:43:56;100970.34;;;11.97;100.00
15263;BME280;7733;51.554;13.590;2023-05-07T00:46:23;100969.00;;;11.50;100.00
15263;BME280;7733;51.554;13.590;2023-05-07T00:48:50;100967.00;;;11.79;100.00
15263;BME280;7733;51.554;13.590;2023-05-07T00:51:17;100969.53;;;11.90;100.00
15263;BME280;7733;51.554;13.590;2023-05-07T00:53:44;100967.03;;;11.73;100.00
15263;BME280;7733;51.554;13.590;2023-05-07T00:56:10;100965.19;;;11.87;100.00
15263;BME280;7733;51.554;13.590;2023-05-07T00:58:37;100965.22;;;11.84;100.00
15263;BME280;7733;51.554;13.590;2023-05-07T01:01:03;100959.09;;;11.81;100.00
15263;BME280;7733;51.554;13.590;2023-05-07T01:03:29;100962.63;;;11.80;100.00
15263;BME280;7733;51.554;13.590;2023-05-07T01:05:57;100961.56;;;11.98;100.00
15263;BME280;7733;51.554;13.590;2023-05-07T01:08:25;100964.22;;;11.96;100.00
15263;BME280;7733;51.554;13.590;2023-05-07T01:10:54;100961.91;;;11.58;100.00
15263;BME280;7733;51.554;13.590;2023-05-07T01:13:20;100956.63;;;11.61;100.00
15263;BME280;7733;51.554;13.590;2023-05-07T01:15:46;100958.47;;;11.53;100.00
15263;BME280;7733;51.554;13.590;2023-05-07T01:18:13;100961.00;;;11.61;100.00
15263;BME280;7733;51.554;13.590;2023-05-07T01:20:38;100958.41;;;11.59;100.00
15263;BME280;7733;51.554;13.590;2023-05-07T01:23:06;100962.56;;;11.86;100.00
15263;BME280;7733;51.554;13.590;2023-05-07T01:25:32;100974.13;;;11.65;100.00
15263;BME280;7733;51.554;13.590;2023-05-07T01:27:58;100973.16;;;11.74;100.00
15263;BME280;7733;51.554;13.590;2023-05-07T01:30:28;100973.66;;;12.14;99.17
15263;BME280;7733;51.554;13.590;2023-05-07T01:33:08;100983.72;;;11.71;100.00
15263;BME280;7733;51.554;13.590;2023-05-07T01:35:53;100976.44;;;12.03;99.61
15263;BME280;7733;51.554;13.590;2023-05-07T01:38:22;100984.41;;;11.93;100.00
15263;BME280;7733;51.554;13.590;2023-05-07T01:40:49;100978.56;;;11.62;100.00
15263;BME280;7733;51.554;13.590;2023-05-07T01:43:15;100976.78;;;11.62;100.00
15263;BME280;7733;51.554;13.590;2023-05-07T01:45:41;100980.13;;;11.84;100.00
15263;BME280;7733;51.554;13.590;2023-05-07T01:48:10;100974.88;;;11.84;99.82
15263;BME280;7733;51.554;13.590;2023-05-07T01:50:37;100972.31;;;11.70;100.00
15263;BME280;7733;51.554;13.590;2023-05-07T01:53:03;100972.56;;;11.46;100.00
15263;BME280;7733;51.554;13.590;2023-05-07T01:55:29;100969.84;;;11.52;100.00
15263;BME280;7733;51.554;13.590;2023-05-07T01:57:55;100965.47;;;11.54;100.00
15263;BME280;7733;51.554;13.590;2023-05-07T02:00:21;100966.44;;;11.41;100.00
15263;BME280;7733;51.554;13.590;2023-05-07T02:02:46;100964.53;;;11.59;100.00
15263;BME280;7733;51.554;13.590;2023-05-07T02:05:12;100971.53;;;11.62;100.00
15263;BME280;7733;51.554;13.590;2023-05-07T02:07:38;100974.38;;;11.35;100.00
15263;BME280;7733;51.554;13.590;2023-05-07T02:10:04;100974.47;;;11.25;100.00
15263;BME280;7733;51.554;13.590;2023-05-07T02:12:30;100975.97;;;11.54;100.00
15263;BME280;7733;51.554;13.590;2023-05-07T02:14:56;100977.72;;;11.55;100.00
15263;BME280;7733;51.554;13.590;2023-05-07T02:17:21;100983.94;;;11.40;100.00
15263;BME280;7733;51.554;13.590;2023-05-07T02:19:47;100987.28;;;11.64;99.13
15263;BME280;7733;51.554;13.590;2023-05-07T02:22:13;100986.44;;;11.62;99.19
15263;BME280;7733;51.554;13.590;2023-05-07T02:24:38;100990.78;;;11.61;98.29
15263;BME280;7733;51.554;13.590;2023-05-07T02:27:04;100995.72;;;12.04;97.04
15263;BME280;7733;51.554;13.590;2023-05-07T02:29:30;100997.03;;;11.48;98.83
15263;BME280;7733;51.554;13.590;2023-05-07T02:31:56;100998.09;;;11.21;100.00
15263;BME280;7733;51.554;13.590;2023-05-07T02:34:21;100994.66;;;11.13;100.00
15263;BME280;7733;51.554;13.590;2023-05-07T02:36:47;100994.63;;;11.19;100.00
15263;BME280;7733;51.554;13.590;2023-05-07T02:39:14;100991.94;;;11.30;100.00
15263;BME280;7733;51.554;13.590;2023-05-07T02:41:41;100989.22;;;11.37;100.00
15263;BME280;7733;51.554;13.590;2023-05-07T02:44:06;100987.47;;;11.42;99.52
15263;BME280;7733;51.554;13.590;2023-05-07T02:46:32;100987.47;;;11.39;100.00
15263;BME280;7733;51.554;13.590;2023-05-07T02:48:58;100986.72;;;11.23;100.00
15263;BME280;7733;51.554;13.590;2023-05-07T02:51:25;100977.00;;;11.36;99.31
15263;BME280;7733;51.554;13.590;2023-05-07T02:53:52;100979.59;;;11.38;99.25
15263;BME280;7733;51.554;13.590;2023-05-07T02:56:18;100978.66;;;11.49;99.21
15263;BME280;7733;51.554;13.590;2023-05-07T02:58:43;100984.94;;;11.27;100.00
15263;BME280;7733;51.554;13.590;2023-05-07T03:01:09;100988.63;;;11.03;100.00
15263;BME280;7733;51.554;13.590;2023-05-07T03:03:35;100988.44;;;11.27;100.00
15263;BME280;7733;51.554;13.590;2023-05-07T03:06:01;100978.03;;;11.12;100.00
15263;BME280;7733;51.554;13.590;2023-05-07T03:08:27;100987.41;;;11.48;98.87
15263;BME280;7733;51.554;13.590;2023-05-07T03:10:53;100969.88;;;11.49;99.01
15263;BME280;7733;51.554;13.590;2023-05-07T03:13:19;100978.59;;;11.55;97.84
15263;BME280;7733;51.554;13.590;2023-05-07T03:15:45;100973.34;;;11.52;97.90
15263;BME280;7733;51.554;13.590;2023-05-07T03:18:10;100977.78;;;11.49;97.79
15263;BME280;7733;51.554;13.590;2023-05-07T03:20:36;100983.06;;;11.44;97.53
15263;BME280;7733;51.554;13.590;2023-05-07T03:23:03;100980.28;;;11.59;97.34
15263;BME280;7733;51.554;13.590;2023-05-07T03:25:28;100982.78;;;11.82;96.32
15263;BME280;7733;51.554;13.590;2023-05-07T03:27:56;100991.34;;;12.03;94.98
15263;BME280;7733;51.554;13.590;2023-05-07T03:30:22;100991.22;;;12.12;94.10
15263;BME280;7733;51.554;13.590;2023-05-07T03:32:48;100990.41;;;12.07;94.58
15263;BME280;7733;51.554;13.590;2023-05-07T03:35:14;100991.34;;;12.03;95.24
15263;BME280;7733;51.554;13.590;2023-05-07T03:37:40;100994.22;;;11.71;95.98
15263;BME280;7733;51.554;13.590;2023-05-07T03:40:06;101003.81;;;11.75;96.48
15263;BME280;7733;51.554;13.590;2023-05-07T03:42:33;100996.81;;;11.81;95.60
15263;BME280;7733;51.554;13.590;2023-05-07T03:44:59;101013.31;;;11.94;95.87
15263;BME280;7733;51.554;13.590;2023-05-07T03:47:24;101015.88;;;12.02;94.87
15263;BME280;7733;51.554;13.590;2023-05-07T03:49:50;101014.13;;;12.01;95.02
15263;BME280;7733;51.554;13.590;2023-05-07T03:52:18;101014.19;;;11.95;95.76
15263;BME280;7733;51.554;13.590;2023-05-07T03:54:49;101016.75;;;12.04;94.74
15263;BME280;7733;51.554;13.590;2023-05-07T03:57:15;101016.78;;;11.96;95.75
15263;BME280;7733;51.554;13.590;2023-05-07T03:59:41;101024.94;;;11.64;96.94
15263;BME280;7733;51.554;13.590;2023-05-07T04:02:06;101017.72;;;11.91;96.66
15263;BME280;7733;51.554;13.590;2023-05-07T04:04:32;101019.38;;;12.01;95.84
15263;BME280;7733;51.554;13.590;2023-05-07T04:06:58;101018.59;;;11.91;96.21
15263;BME280;7733;51.554;13.590;2023-05-07T04:09:25;101037.19;;;11.65;97.95
15263;BME280;7733;51.554;13.590;2023-05-07T04:11:51;101030.94;;;11.86;97.34
15263;BME280;7733;51.554;13.590;2023-05-07T04:14:16;101030.91;;;11.87;97.36
15263;BME280;7733;51.554;13.590;2023-05-07T04:16:42;101034.66;;;11.53;99.04
15263;BME280;7733;51.554;13.590;2023-05-07T04:19:08;101037.81;;;11.98;97.08
15263;BME280;7733;51.554;13.590;2023-05-07T04:21:34;101032.75;;;11.72;98.80
15263;BME280;7733;51.554;13.590;2023-05-07T04:23:59;101028.59;;;11.45;100.00
15263;BME280;7733;51.554;13.590;2023-05-07T04:26:25;101038.94;;;11.66;99.52
15263;BME280;7733;51.554;13.590;2023-05-07T04:28:51;101035.38;;;11.72;99.21
15263;BME280;7733;51.554;13.590;2023-05-07T04:31:17;101042.66;;;11.36;100.00
15263;BME280;7733;51.554;13.590;2023-05-07T04:33:43;101054.00;;;11.43;100.00
15263;BME280;7733;51.554;13.590;2023-05-07T04:36:08;101061.88;;;11.40;100.00
15263;BME280;7733;51.554;13.590;2023-05-07T04:38:34;101059.19;;;11.50;100.00
15263;BME280;7733;51.554;13.590;2023-05-07T04:41:05;101069.84;;;11.29;100.00
15263;BME280;7733;51.554;13.590;2023-05-07T04:43:32;101065.31;;;11.54;100.00
15263;BME280;7733;51.554;13.590;2023-05-07T04:45:57;101067.00;;;11.64;99.18
15263;BME280;7733;51.554;13.590;2023-05-07T04:48:23;101074.97;;;11.50;99.83
15263;BME280;7733;51.554;13.590;2023-05-07T04:50:52;101065.19;;;11.69;98.80
15263;BME280;7733;51.554;13.590;2023-05-07T04:53:19;101071.28;;;11.79;98.71
15263;BME280;7733;51.554;13.590;2023-05-07T04:55:45;101081.78;;;11.80;98.39
15263;BME280;7733;51.554;13.590;2023-05-07T04:58:12;101079.91;;;11.96;97.47
15263;BME280;7733;51.554;13.590;2023-05-07T05:00:38;101081.13;;;11.46;99.32
15263;BME280;7733;51.554;13.590;2023-05-07T05:03:07;101087.28;;;11.39;99.79
15263;BME280;7733;51.554;13.590;2023-05-07T05:05:33;101082.97;;;11.29;100.00
15263;BME280;7733;51.554;13.590;2023-05-07T05:07:59;101085.41;;;11.56;100.00
15263;BME280;7733;51.554;13.590;2023-05-07T05:10:25;101083.66;;;11.62;99.34
15263;BME280;7733;51.554;13.590;2023-05-07T05:12:51;101088.16;;;11.44;100.00
15263;BME280;7733;51.554;13.590;2023-05-07T05:15:17;101091.66;;;11.39;100.00
15263;BME280;7733;51.554;13.590;2023-05-07T05:17:43;101086.25;;;11.60;100.00
15263;BME280;7733;51.554;13.590;2023-05-07T05:20:09;101093.53;;;11.24;100.00
15263;BME280;7733;51.554;13.590;2023-05-07T05:22:38;101079.28;;;11.56;100.00
15263;BME280;7733;51.554;13.590;2023-05-07T05:25:04;101085.44;;;11.55;100.00
15263;BME280;7733;51.554;13.590;2023-05-07T05:27:30;101078.34;;;11.69;100.00
15263;BME280;7733;51.554;13.590;2023-05-07T05:29:56;101073.91;;;11.73;99.72
15263;BME280;7733;51.554;13.590;2023-05-07T05:32:22;101082.00;;;11.45;100.00
15263;BME280;7733;51.554;13.590;2023-05-07T05:34:48;101082.63;;;11.78;99.71
15263;BME280;7733;51.554;13.590;2023-05-07T05:37:13;101081.13;;;11.45;100.00
15263;BME280;7733;51.554;13.590;2023-05-07T05:39:39;101082.97;;;11.31;100.00
15263;BME280;7733;51.554;13.590;2023-05-07T05:42:05;101081.03;;;11.58;100.00
15263;BME280;7733;51.554;13.590;2023-05-07T05:44:31;101092.44;;;11.54;100.00
15263;BME280;7733;51.554;13.590;2023-05-07T05:46:56;101100.44;;;11.38;100.00
15263;BME280;7733;51.554;13.590;2023-05-07T05:49:25;101084.47;;;11.70;100.00
15263;BME280;7733;51.554;13.590;2023-05-07T05:51:51;101087.44;;;11.13;100.00
15263;BME280;7733;51.554;13.590;2023-05-07T05:54:17;101086.31;;;11.54;100.00
15263;BME280;7733;51.554;13.590;2023-05-07T05:56:42;101087.16;;;11.57;100.00
15263;BME280;7733;51.554;13.590;2023-05-07T05:59:08;101095.91;;;11.61;100.00
15263;BME280;7733;51.554;13.590;2023-05-07T06:01:34;101100.38;;;11.50;100.00
15263;BME280;7733;51.554;13.590;2023-05-07T06:04:00;101102.28;;;11.20;100.00
15263;BME280;7733;51.554;13.590;2023-05-07T06:06:25;101102.09;;;11.51;100.00
15263;BME280;7733;51.554;13.590;2023-05-07T06:08:51;101101.25;;;11.47;100.00
15263;BME280;7733;51.554;13.590;2023-05-07T06:11:17;101109.06;;;11.63;99.71
15263;BME280;7733;51.554;13.590;2023-05-07T06:13:43;101118.53;;;11.90;98.39
15263;BME280;7733;51.554;13.590;2023-05-07T06:16:08;101128.22;;;11.75;99.11
15263;BME280;7733;51.554;13.590;2023-05-07T06:18:34;101130.91;;;11.68;98.71
15263;BME280;7733;51.554;13.590;2023-05-07T06:21:02;101125.72;;;11.57;98.90
15263;BME280;7733;51.554;13.590;2023-05-07T06:23:27;101131.16;;;11.17;100.00
15263;BME280;7733;51.554;13.590;2023-05-07T06:25:53;101125.03;;;11.18;99.43
15263;BME280;7733;51.554;13.590;2023-05-07T06:28:19;101131.91;;;11.47;98.46
15263;BME280;7733;51.554;13.590;2023-05-07T06:30:45;101130.25;;;11.27;99.46
15263;BME280;7733;51.554;13.590;2023-05-07T06:33:11;101136.50;;;11.05;99.40
15263;BME280;7733;51.554;13.590;2023-05-07T06:35:36;101130.28;;;11.18;99.05
15263;BME280;7733;51.554;13.590;2023-05-07T06:38:02;101132.94;;;11.17;99.22
15263;BME280;7733;51.554;13.590;2023-05-07T06:40:28;101136.47;;;11.08;99.17
15263;BME280;7733;51.554;13.590;2023-05-07T06:42:53;101127.66;;;11.24;99.03
15263;BME280;7733;51.554;13.590;2023-05-07T06:45:20;101127.59;;;11.32;98.82
15263;BME280;7733;51.554;13.590;2023-05-07T06:47:46;101125.69;;;11.62;97.66
15263;BME280;7733;51.554;13.590;2023-05-07T06:50:12;101125.00;;;11.31;98.71
15263;BME280;7733;51.554;13.590;2023-05-07T06:52:37;101128.31;;;11.63;97.30
15263;BME280;7733;51.554;13.590;2023-05-07T06:55:04;101131.03;;;11.46;97.53
15263;BME280;7733;51.554;13.590;2023-05-07T06:57:30;101134.44;;;11.59;97.54
15263;BME280;7733;51.554;13.590;2023-05-07T06:59:56;101146.63;;;11.83;96.99
15263;BME280;7733;51.554;13.590;2023-05-07T07:02:21;101153.69;;;11.67;97.76
15263;BME280;7733;51.554;13.590;2023-05-07T07:04:47;101153.63;;;11.84;96.60
15263;BME280;7733;51.554;13.590;2023-05-07T07:07:13;101153.50;;;11.98;95.87
15263;BME280;7733;51.554;13.590;2023-05-07T07:09:39;101153.47;;;12.05;95.70
15263;BME280;7733;51.554;13.590;2023-05-07T07:12:04;101159.84;;;11.66;97.38
15263;BME280;7733;51.554;13.590;2023-05-07T07:14:30;101158.84;;;11.88;95.95
15263;BME280;7733;51.554;13.590;2023-05-07T07:16:56;101163.28;;;11.71;96.79
15263;BME280;7733;51.554;13.590;2023-05-07T07:19:22;101166.06;;;11.48;97.18
15263;BME280;7733;51.554;13.590;2023-05-07T07:21:47;101166.09;;;11.38;97.54
15263;BME280;7733;51.554;13.590;2023-05-07T07:24:15;101165.09;;;11.66;96.65
15263;BME280;7733;51.554;13.590;2023-05-07T07:26:46;101167.66;;;11.81;95.35
15263;BME280;7733;51.554;13.590;2023-05-07T07:29:13;101171.16;;;11.76;95.72
15263;BME280;7733;51.554;13.590;2023-05-07T07:31:38;101172.91;;;11.81;95.48
15263;BME280;7733;51.554;13.590;2023-05-07T07:34:04;101167.63;;;11.86;95.08
15263;BME280;7733;51.554;13.590;2023-05-07T07:36:30;101175.50;;;11.87;95.68
15263;BME280;7733;51.554;13.590;2023-05-07T07:38:55;101179.94;;;11.73;95.35
15263;BME280;7733;51.554;13.590;2023-05-07T07:41:21;101173.75;;;11.85;94.76
15263;BME280;7733;51.554;13.590;2023-05-07T07:43:47;101163.34;;;11.65;95.78
15263;BME280;7733;51.554;13.590;2023-05-07T07:46:13;101174.56;;;11.95;94.79
15263;BME280;7733;51.554;13.590;2023-05-07T07:48:38;101173.69;;;11.96;95.21
15263;BME280;7733;51.554;13.590;2023-05-07T07:51:04;101182.66;;;11.55;95.38
15263;BME280;7733;51.554;13.590;2023-05-07T07:53:30;101165.19;;;11.49;95.29
15263;BME280;7733;51.554;13.590;2023-05-07T07:55:56;101185.03;;;12.01;94.70
15263;BME280;7733;51.554;13.590;2023-05-07T07:58:22;101180.75;;;11.89;95.36
15263;BME280;7733;51.554;13.590;2023-05-07T08:00:48;101173.81;;;11.71;95.64
15263;BME280;7733;51.554;13.590;2023-05-07T08:03:14;101179.03;;;11.74;95.15
15263;BME280;7733;51.554;13.590;2023-05-07T08:05:42;101179.81;;;11.96;94.51
15263;BME280;7733;51.554;13.590;2023-05-07T08:08:08;101171.06;;;11.94;94.15
15263;BME280;7733;51.554;13.590;2023-05-07T08:10:35;101176.88;;;12.34;92.96
15263;BME280;7733;51.554;13.590;2023-05-07T08:13:04;101172.56;;;12.29;92.78
15263;BME280;7733;51.554;13.590;2023-05-07T08:15:30;101173.72;;;11.91;93.70
15263;BME280;7733;51.554;13.590;2023-05-07T08:17:56;101165.84;;;11.88;94.38
15263;BME280;7733;51.554;13.590;2023-05-07T08:20:26;101176.31;;;11.96;94.12
15263;BME280;7733;51.554;13.590;2023-05-07T08:22:51;101180.69;;;11.97;93.85
15263;BME280;7733;51.554;13.590;2023-05-07T08:25:17;101182.38;;;12.05;94.07
15263;BME280;7733;51.554;13.590;2023-05-07T08:27:43;101171.84;;;12.07;93.67
15263;BME280;7733;51.554;13.590;2023-05-07T08:30:11;101178.69;;;12.29;93.13
15263;BME280;7733;51.554;13.590;2023-05-07T08:32:37;101187.34;;;12.45;92.40
15263;BME280;7733;51.554;13.590;2023-05-07T08:35:03;101180.50;;;12.18;92.25
15263;BME280;7733;51.554;13.590;2023-05-07T08:37:28;101185.28;;;12.73;90.53
15263;BME280;7733;51.554;13.590;2023-05-07T08:39:54;101200.41;;;12.53;91.88
15263;BME280;7733;51.554;13.590;2023-05-07T08:42:23;101196.09;;;12.45;92.83
15263;BME280;7733;51.554;13.590;2023-05-07T08:44:51;101207.75;;;12.11;92.75
15263;BME280;7733;51.554;13.590;2023-05-07T08:47:22;101200.34;;;12.57;91.23
15263;BME280;7733;51.554;13.590;2023-05-07T08:49:54;101202.28;;;12.38;92.04
15263;BME280;7733;51.554;13.590;2023-05-07T08:52:20;101203.91;;;12.53;91.25
15263;BME280;7733;51.554;13.590;2023-05-07T08:54:46;101210.06;;;12.51;91.55
15263;BME280;7733;51.554;13.590;2023-05-07T08:57:13;101211.88;;;12.45;91.64
15263;BME280;7733;51.554;13.590;2023-05-07T08:59:40;101213.72;;;12.34;92.55
15263;BME280;7733;51.554;13.590;2023-05-07T09:02:09;101217.94;;;12.54;91.96
15263;BME280;7733;51.554;13.590;2023-05-07T09:04:35;101211.78;;;12.56;91.44
15263;BME280;7733;51.554;13.590;2023-05-07T09:07:01;101217.31;;;12.24;91.75
15263;BME280;7733;51.554;13.590;2023-05-07T09:09:32;101212.84;;;12.34;90.79
15263;BME280;7733;51.554;13.590;2023-05-07T09:11:59;101211.91;;;12.39;91.18
15263;BME280;7733;51.554;13.590;2023-05-07T09:14:25;101222.66;;;12.12;91.45
15263;BME280;7733;51.554;13.590;2023-05-07T09:16:54;101222.59;;;12.24;91.65
15263;BME280;7733;51.554;13.590;2023-05-07T09:19:24;101218.13;;;12.32;91.90
15263;BME280;7733;51.554;13.590;2023-05-07T09:21:58;101219.56;;;12.68;89.96
15263;BME280;7733;51.554;13.590;2023-05-07T09:24:24;101229.06;;;12.86;89.91
15263;BME280;7733;51.554;13.590;2023-05-07T09:26:50;101231.13;;;12.51;90.30
15263;BME280;7733;51.554;13.590;2023-05-07T09:29:15;101226.28;;;12.98;88.76
15263;BME280;7733;51.554;13.590;2023-05-07T09:31:42;101232.78;;;12.64;90.08
15263;BME280;7733;51.554;13.590;2023-05-07T09:34:08;101229.38;;;12.49;90.78
15263;BME280;7733;51.554;13.590;2023-05-07T09:36:34;101222.59;;;12.24;91.17
15263;BME280;7733;51.554;13.590;2023-05-07T09:39:00;101231.19;;;12.44;91.18
15263;BME280;7733;51.554;13.590;2023-05-07T09:41:26;101225.75;;;12.66;90.60
15263;BME280;7733;51.554;13.590;2023-05-07T09:43:55;101233.56;;;12.72;90.68
15263;BME280;7733;51.554;13.590;2023-05-07T09:46:28;101240.00;;;12.37;92.17
15263;BME280;7733;51.554;13.590;2023-05-07T09:48:57;101234.44;;;12.72;91.21
15263;BME280;7733;51.554;13.590;2023-05-07T09:51:52;101233.47;;;12.84;90.57
15263;BME280;7733;51.554;13.590;2023-05-07T09:54:18;101237.25;;;12.53;90.12
15263;BME280;7733;51.554;13.590;2023-05-07T09:56:45;101225.47;;;12.92;89.71
15263;BME280;7733;51.554;13.590;2023-05-07T09:59:15;101222.78;;;12.98;89.39
15263;BME280;7733;51.554;13.590;2023-05-07T10:01:43;101227.13;;;13.00;89.77
15263;BME280;7733;51.554;13.590;2023-05-07T10:04:14;101220.31;;;12.81;88.61
15263;BME280;7733;51.554;13.590;2023-05-07T10:06:40;101221.19;;;12.83;88.37
15263;BME280;7733;51.554;13.590;2023-05-07T10:09:08;101233.78;;;12.49;89.60
15263;BME280;7733;51.554;13.590;2023-05-07T10:11:35;101228.06;;;12.96;88.84
15263;BME280;7733;51.554;13.590;2023-05-07T10:14:05;101224.50;;;13.03;87.75
15263;BME280;7733;51.554;13.590;2023-05-07T10:16:36;101228.91;;;13.01;87.83
15263;BME280;7733;51.554;13.590;2023-05-07T10:19:09;101228.69;;;13.21;87.57
15263;BME280;7733;51.554;13.590;2023-05-07T10:21:39;101235.06;;;12.99;87.77
15263;BME280;7733;51.554;13.590;2023-05-07T10:24:19;101233.28;;;13.02;87.11
15263;BME280;7733;51.554;13.590;2023-05-07T10:26:52;101243.53;;;13.30;87.09
15263;BME280;7733;51.554;13.590;2023-05-07T10:29:29;101234.84;;;13.25;86.98
15263;BME280;7733;51.554;13.590;2023-05-07T10:32:45;101230.63;;;13.79;86.06
15263;BME280;7733;51.554;13.590;2023-05-07T10:35:38;101220.28;;;13.65;86.12
15263;BME280;7733;51.554;13.590;2023-05-07T10:38:05;101216.94;;;13.50;85.67
15263;BME280;7733;51.554;13.590;2023-05-07T10:40:31;101223.31;;;13.32;86.52
15263;BME280;7733;51.554;13.590;2023-05-07T10:43:00;101225.00;;;13.37;85.89
15263;BME280;7733;51.554;13.590;2023-05-07T10:45:28;101223.50;;;13.14;86.39
15263;BME280;7733;51.554;13.590;2023-05-07T10:48:15;101215.16;;;13.53;85.64
15263;BME280;7733;51.554;13.590;2023-05-07T10:50:44;101218.22;;;13.86;85.56
15263;BME280;7733;51.554;13.590;2023-05-07T10:55:50;101231.56;;;13.74;85.13
15263;BME280;7733;51.554;13.590;2023-05-07T10:58:25;101226.81;;;13.34;85.32
15263;BME280;7733;51.554;13.590;2023-05-07T11:01:02;101227.84;;;13.16;85.76
15263;BME280;7733;51.554;13.590;2023-05-07T11:03:29;101235.19;;;13.66;84.49
15263;BME280;7733;51.554;13.590;2023-05-07T11:06:15;101225.69;;;13.53;85.14
15263;BME280;7733;51.554;13.590;2023-05-07T11:08:57;101227.25;;;13.68;85.28
15263;BME280;7733;51.554;13.590;2023-05-07T11:11:50;101226.44;;;13.64;85.03
15263;BME280;7733;51.554;13.590;2023-05-07T11:14:43;101220.81;;;13.90;84.42
15263;BME280;7733;51.554;13.590;2023-05-07T11:17:10;101218.97;;;13.94;84.28
15263;BME280;7733;51.554;13.590;2023-05-07T11:19:54;101222.63;;;13.87;83.96
15263;BME280;7733;51.554;13.590;2023-05-07T11:25:03;101219.16;;;14.43;80.65
15263;BME280;7733;51.554;13.590;2023-05-07T11:27:29;101222.16;;;14.17;80.69
15263;BME280;7733;51.554;13.590;2023-05-07T11:29:56;101228.81;;;14.40;79.09
15263;BME280;7733;51.554;13.590;2023-05-07T11:32:29;101228.47;;;14.07;79.46
15263;BME280;7733;51.554;13.590;2023-05-07T11:34:57;101222.34;;;14.05;79.94
15263;BME280;7733;51.554;13.590;2023-05-07T11:37:26;101221.91;;;14.32;79.49
15263;BME280;7733;51.554;13.590;2023-05-07T11:40:04;101232.53;;;14.29;78.57
15263;BME280;7733;51.554;13.590;2023-05-07T11:42:33;101215.72;;;14.35;78.81
15263;BME280;7733;51.554;13.590;2023-05-07T11:45:00;101221.31;;;14.15;79.33
15263;BME280;7733;51.554;13.590;2023-05-07T11:47:30;101228.28;;;14.19;78.32
15263;BME280;7733;51.554;13.590;2023-05-07T11:49:57;101221.81;;;14.39;77.86
15263;BME280;7733;51.554;13.590;2023-05-07T11:52:27;101212.88;;;14.49;77.23
15263;BME280;7733;51.554;13.590;2023-05-07T11:54:56;101226.19;;;14.40;76.53
15263;BME280;7733;51.554;13.590;2023-05-07T11:57:24;101217.44;;;14.36;76.98
15263;BME280;7733;51.554;13.590;2023-05-07T11:59:58;101222.97;;;14.21;77.26
15263;BME280;7733;51.554;13.590;2023-05-07T12:02:25;101224.41;;;14.42;76.90
15263;BME280;7733;51.554;13.590;2023-05-07T12:04:52;101228.91;;;14.35;77.59
15263;BME280;7733;51.554;13.590;2023-05-07T12:07:18;101238.34;;;14.53;77.16
15263;BME280;7733;51.554;13.590;2023-05-07T12:09:45;101229.31;;;14.09;77.44
15263;BME280;7733;51.554;13.590;2023-05-07T12:12:11;101223.84;;;14.23;78.08
15263;BME280;7733;51.554;13.590;2023-05-07T12:14:43;101235.22;;;14.26;77.30
15263;BME280;7733;51.554;13.590;2023-05-07T12:17:10;101235.03;;;14.37;77.14
15263;BME280;7733;51.554;13.590;2023-05-07T12:19:38;101228.56;;;14.58;76.86
15263;BME280;7733;51.554;13.590;2023-05-07T12:22:05;101235.75;;;14.50;76.73
15263;BME280;7733;51.554;13.590;2023-05-07T12:25:03;101246.50;;;14.35;76.45
15263;BME280;7733;51.554;13.590;2023-05-07T12:27:29;101233.97;;;14.50;76.43
15263;BME280;7733;51.554;13.590;2023-05-07T12:29:57;101241.63;;;14.09;78.81
15263;BME280;7733;51.554;13.590;2023-05-07T12:32:24;101246.16;;;13.99;79.74
15263;BME280;7733;51.554;13.590;2023-05-07T12:34:51;101250.41;;;14.11;79.58
15263;BME280;7733;51.554;13.590;2023-05-07T12:37:23;101246.06;;;14.07;79.37
15263;BME280;7733;51.554;13.590;2023-05-07T12:40:03;101245.63;;;14.34;79.03
15263;BME280;7733;51.554;13.590;2023-05-07T12:42:35;101245.03;;;14.15;80.09
15263;BME280;7733;51.554;13.590;2023-05-07T12:45:12;101249.41;;;14.18;79.75
15263;BME280;7733;51.554;13.590;2023-05-07T12:47:38;101249.84;;;14.49;79.35
15263;BME280;7733;51.554;13.590;2023-05-07T12:50:07;101254.63;;;14.24;79.64
15263;BME280;7733;51.554;13.590;2023-05-07T12:52:34;101257.25;;;14.24;79.03
15263;BME280;7733;51.554;13.590;2023-05-07T12:55:07;101253.47;;;14.43;78.78